Time;durP1;ratioP1;P1;durP2;ratioP2;P2;SDS_P1;SDS_P2;PMS_P1;PMS_P2;Temp;Humidity;BMP_temperature;BMP_pressure;BME280_temperature;BME280_humidity;BME280_pressure;Samples;Min_cycle;Max_cycle;Signal;HPM_P1;HPM_P2
2022/03/23 00:01:21;;;;;;;18.40;11.48;;;0.40;99.90;;;;;;5020762;28;20156;-58
2022/03/23 00:03:48;;;;;;;17.00;11.68;;;0.30;99.90;;;;;;5021902;28;20470;-55
2022/03/23 00:06:14;;;;;;;14.38;12.73;;;0.20;99.90;;;;;;5020171;28;20694;-56
2022/03/23 00:08:40;;;;;;;15.30;11.85;;;0.20;99.90;;;;;;5022027;28;20021;-58
2022/03/23 00:11:06;;;;;;;14.20;10.80;;;0.10;99.90;;;;;;5021032;28;20137;-57
2022/03/23 00:13:32;;;;;;;15.20;12.35;;;0.10;99.90;;;;;;5019898;28;20437;-57
2022/03/23 00:15:59;;;;;;;15.40;11.73;;;0.10;99.90;;;;;;5029981;28;20029;-58
2022/03/23 00:18:25;;;;;;;17.40;12.15;;;0.10;99.90;;;;;;5017669;28;20041;-57
2022/03/23 00:20:51;;;;;;;16.55;11.90;;;0.20;99.90;;;;;;5018669;28;20021;-57
2022/03/23 00:23:16;;;;;;;15.07;11.30;;;0.20;99.90;;;;;;5014800;28;20030;-55
2022/03/23 00:25:42;;;;;;;14.23;10.90;;;0.30;99.90;;;;;;5019676;28;20029;-56
2022/03/23 00:28:08;;;;;;;15.52;10.85;;;0.30;99.90;;;;;;5020596;28;20057;-57
2022/03/23 00:30:34;;;;;;;17.58;10.75;;;0.30;99.90;;;;;;5021614;28;20037;-55
2022/03/23 00:33:02;;;;;;;12.52;10.52;;;0.30;99.90;;;;;;5021401;28;20487;-55
2022/03/23 00:35:29;;;;;;;13.45;11.93;;;0.30;99.90;;;;;;5021718;28;21124;-57
2022/03/23 00:37:58;;;;;;;13.45;11.15;;;0.30;99.90;;;;;;5018911;28;20529;-55
2022/03/23 00:40:24;;;;;;;15.38;11.13;;;0.20;99.90;;;;;;5021414;28;20030;-55
2022/03/23 00:42:50;;;;;;;15.95;11.30;;;0.20;99.90;;;;;;5020983;28;20034;-55
2022/03/23 00:45:17;;;;;;;13.40;10.82;;;0.10;99.90;;;;;;5016739;28;20048;-55
2022/03/23 00:47:43;;;;;;;13.45;10.98;;;0.00;99.90;;;;;;5018419;28;20396;-55
2022/03/23 00:50:09;;;;;;;14.48;10.88;;;-0.10;99.90;;;;;;5016386;28;20391;-58
2022/03/23 00:52:37;;;;;;;14.00;11.13;;;-0.10;99.90;;;;;;5020445;28;20058;-58
2022/03/23 00:55:09;;;;;;;16.33;11.70;;;-0.20;99.90;;;;;;5021489;28;20030;-57
2022/03/23 00:57:38;;;;;;;18.42;12.05;;;-0.30;99.90;;;;;;5018423;28;20040;-55
2022/03/23 01:00:07;;;;;;;16.50;11.32;;;-0.40;99.90;;;;;;5022391;28;20018;-56
2022/03/23 01:02:36;;;;;;;16.77;11.00;;;-0.50;99.90;;;;;;5019248;28;20056;-54
2022/03/23 01:05:02;;;;;;;13.63;10.65;;;-0.50;99.90;;;;;;5019308;28;20065;-57
2022/03/23 01:07:28;;;;;;;17.48;11.73;;;-0.50;99.90;;;;;;5020426;28;20091;-56
2022/03/23 01:09:53;;;;;;;16.05;11.68;;;-0.60;99.90;;;;;;5019064;28;20053;-58
2022/03/23 01:12:19;;;;;;;14.68;10.68;;;-0.70;99.90;;;;;;5019852;28;20022;-55
2022/03/23 01:14:44;;;;;;;16.77;10.40;;;-0.70;99.90;;;;;;5019848;28;20021;-55
2022/03/23 01:17:10;;;;;;;19.73;11.48;;;-0.70;99.90;;;;;;5015704;28;20034;-55
2022/03/23 01:19:36;;;;;;;16.27;12.68;;;-0.80;99.90;;;;;;5019210;28;20041;-56
2022/03/23 01:22:02;;;;;;;21.20;13.52;;;-0.80;99.90;;;;;;5020397;28;20033;-57
2022/03/23 01:24:28;;;;;;;14.50;11.80;;;-0.80;99.90;;;;;;5019929;28;20022;-58
2022/03/23 01:26:53;;;;;;;19.77;12.55;;;-0.90;99.90;;;;;;5023535;28;20057;-56
2022/03/23 01:29:19;;;;;;;14.43;11.23;;;-0.90;99.90;;;;;;5021792;28;20048;-56
2022/03/23 01:31:46;;;;;;;20.48;13.45;;;-0.90;99.90;;;;;;5019162;28;20101;-55
2022/03/23 01:34:12;;;;;;;16.08;11.90;;;-0.90;99.90;;;;;;5019684;28;20064;-54
2022/03/23 01:36:37;;;;;;;19.05;12.43;;;-0.90;99.90;;;;;;5019016;28;20057;-55
2022/03/23 01:39:03;;;;;;;18.45;12.85;;;-0.90;99.90;;;;;;5017701;28;20118;-55
2022/03/23 01:41:30;;;;;;;19.02;12.80;;;-0.90;99.90;;;;;;5015768;28;20133;-58
2022/03/23 01:43:55;;;;;;;21.10;12.57;;;-0.90;99.90;;;;;;5016956;28;20026;-56
2022/03/23 01:46:21;;;;;;;18.67;13.63;;;-0.90;99.90;;;;;;5019269;28;20030;-56
2022/03/23 01:48:47;;;;;;;18.80;13.68;;;-0.90;99.90;;;;;;5017801;28;20029;-58
2022/03/23 01:51:14;;;;;;;16.60;13.25;;;-0.90;99.90;;;;;;5017940;28;20033;-57
2022/03/23 01:53:40;;;;;;;18.85;11.70;;;-0.90;99.90;;;;;;5017576;28;20087;-55
2022/03/23 01:56:09;;;;;;;18.67;13.00;;;-0.90;99.90;;;;;;5016142;28;20386;-57
2022/03/23 01:58:37;;;;;;;16.88;12.02;;;-0.90;99.90;;;;;;5014242;28;20034;-57
2022/03/23 02:01:02;;;;;;;17.17;12.25;;;-0.90;99.90;;;;;;5018035;28;20132;-56
2022/03/23 02:03:28;;;;;;;16.10;12.00;;;-0.90;99.90;;;;;;5016814;28;20116;-55
2022/03/23 02:05:54;;;;;;;18.50;11.63;;;-1.00;99.90;;;;;;5021822;28;20544;-55
2022/03/23 02:08:19;;;;;;;18.70;12.38;;;-1.00;99.90;;;;;;5018682;28;20034;-56
2022/03/23 02:10:45;;;;;;;18.30;13.15;;;-1.10;99.90;;;;;;5019106;28;20037;-57
2022/03/23 02:13:11;;;;;;;17.10;12.00;;;-1.10;99.90;;;;;;5015975;28;20572;-56
2022/03/23 02:15:38;;;;;;;18.00;11.90;;;-1.20;99.90;;;;;;5018041;28;20086;-55
2022/03/23 02:18:04;;;;;;;17.50;11.48;;;-1.30;99.90;;;;;;5020022;28;20370;-58
2022/03/23 02:20:30;;;;;;;17.23;10.40;;;-1.30;99.90;;;;;;5017884;28;20120;-56
2022/03/23 02:22:56;;;;;;;14.55;10.60;;;-1.40;99.90;;;;;;5017428;28;20025;-58
2022/03/23 02:25:28;;;;;;;14.60;9.82;;;-1.40;99.90;;;;;;5016407;28;20072;-57
2022/03/23 02:27:55;;;;;;;12.63;10.75;;;-1.50;99.90;;;;;;5019457;28;20060;-58
2022/03/23 02:30:21;;;;;;;19.25;12.18;;;-1.50;99.90;;;;;;5017667;28;20037;-55
2022/03/23 02:32:48;;;;;;;18.00;12.63;;;-1.60;99.90;;;;;;5037288;28;20045;-55
2022/03/23 02:35:15;;;;;;;17.85;12.13;;;-1.60;99.90;;;;;;5018776;28;20080;-56
2022/03/23 02:37:41;;;;;;;19.50;13.35;;;-1.60;99.90;;;;;;5013864;28;20046;-58
2022/03/23 02:40:09;;;;;;;18.45;11.20;;;-1.70;99.90;;;;;;5016853;28;20033;-55
2022/03/23 02:42:38;;;;;;;18.42;11.05;;;-1.70;99.90;;;;;;5015343;28;20060;-57
2022/03/23 02:45:05;;;;;;;16.05;13.15;;;-1.70;99.90;;;;;;5017627;28;20056;-57
2022/03/23 02:47:31;;;;;;;20.42;12.55;;;-1.80;99.90;;;;;;5020067;28;20018;-58
2022/03/23 02:49:57;;;;;;;16.65;12.30;;;-1.70;99.90;;;;;;5018456;28;20493;-57
2022/03/23 02:52:23;;;;;;;19.52;13.35;;;-1.80;99.90;;;;;;5016367;28;20083;-57
2022/03/23 03:03:22;;;;;;;15.85;12.73;;;-1.70;99.90;;;;;;5018917;28;20538;-56
2022/03/23 03:05:47;;;;;;;17.77;12.25;;;-1.70;99.90;;;;;;5020060;28;20105;-56
2022/03/23 03:10:57;;;;;;;22.52;14.40;;;-1.70;99.90;;;;;;5018078;28;20406;-56
2022/03/23 03:13:23;;;;;;;15.80;12.35;;;-1.70;99.90;;;;;;5017124;28;20041;-57
2022/03/23 03:15:48;;;;;;;18.02;13.70;;;-1.70;99.90;;;;;;5018151;28;20041;-56
2022/03/23 03:18:14;;;;;;;17.33;11.60;;;-1.80;99.90;;;;;;5016576;28;20025;-57
2022/03/23 03:20:40;;;;;;;23.80;13.43;;;-1.80;99.90;;;;;;5019655;28;20117;-55
2022/03/23 03:23:05;;;;;;;20.70;12.13;;;-1.80;99.90;;;;;;5016188;28;20038;-58
2022/03/23 03:25:31;;;;;;;20.45;13.07;;;-1.80;99.90;;;;;;5018955;28;20478;-58
2022/03/23 03:27:56;;;;;;;21.02;13.95;;;-1.80;99.90;;;;;;5017661;28;20041;-55
2022/03/23 03:30:22;;;;;;;16.83;13.07;;;-1.90;99.90;;;;;;5021687;28;20079;-57
2022/03/23 03:32:48;;;;;;;21.55;15.27;;;-1.90;99.90;;;;;;5016465;28;20029;-59
2022/03/23 03:35:14;;;;;;;23.13;15.02;;;-1.90;99.90;;;;;;5016400;28;20033;-58
2022/03/23 03:37:41;;;;;;;25.70;16.42;;;-1.90;99.90;;;;;;5019197;28;20038;-56
2022/03/23 03:40:08;;;;;;;27.75;15.43;;;-1.80;99.90;;;;;;5017289;28;20637;-56
2022/03/23 03:42:34;;;;;;;22.58;14.85;;;-1.70;99.90;;;;;;5013718;28;20120;-57
2022/03/23 03:45:01;;;;;;;23.80;14.65;;;-1.60;99.90;;;;;;5018964;28;20052;-57
2022/03/23 03:47:27;;;;;;;20.67;14.25;;;-1.60;99.90;;;;;;5017297;28;20091;-56
2022/03/23 03:49:53;;;;;;;26.27;13.45;;;-1.60;99.90;;;;;;5014337;28;20030;-57
2022/03/23 03:52:19;;;;;;;22.30;13.80;;;-1.60;99.90;;;;;;5015522;28;20410;-57
2022/03/23 03:54:45;;;;;;;22.33;15.57;;;-1.60;99.90;;;;;;5015783;28;20025;-57
2022/03/23 03:57:11;;;;;;;22.73;13.80;;;-1.70;99.90;;;;;;5016398;28;20392;-55
2022/03/23 03:59:37;;;;;;;20.63;14.10;;;-1.80;99.90;;;;;;5016392;28;20552;-56
2022/03/23 04:02:04;;;;;;;19.35;13.27;;;-1.80;99.90;;;;;;5017186;28;20121;-58
2022/03/23 04:04:30;;;;;;;21.48;13.00;;;-1.90;99.90;;;;;;5017117;28;20501;-56
2022/03/23 04:06:56;;;;;;;19.08;13.15;;;-2.00;99.90;;;;;;5018023;28;20088;-55
2022/03/23 04:09:23;;;;;;;23.27;14.18;;;-2.00;99.90;;;;;;5018317;28;20567;-55
2022/03/23 04:11:49;;;;;;;20.30;13.98;;;-2.00;99.90;;;;;;5014987;28;20034;-57
2022/03/23 04:14:15;;;;;;;21.58;13.05;;;-2.00;99.90;;;;;;5018411;28;20117;-57
2022/03/23 04:16:41;;;;;;;19.77;12.43;;;-2.00;99.90;;;;;;5020775;28;20037;-57
2022/03/23 04:19:07;;;;;;;16.55;12.50;;;-2.00;99.90;;;;;;5014389;28;20026;-58
2022/03/23 04:21:35;;;;;;;17.77;12.52;;;-2.00;99.90;;;;;;5015865;28;20034;-55
2022/03/23 04:24:01;;;;;;;22.63;14.63;;;-2.00;99.90;;;;;;5017808;28;20022;-55
2022/03/23 04:26:26;;;;;;;22.50;13.38;;;-2.00;99.90;;;;;;5019749;28;20026;-56
2022/03/23 04:28:52;;;;;;;28.77;14.00;;;-2.00;99.90;;;;;;5019946;28;20432;-56
2022/03/23 04:31:18;;;;;;;21.88;13.15;;;-2.00;99.90;;;;;;5014607;28;20092;-56
2022/03/23 04:33:44;;;;;;;21.88;14.52;;;-2.00;99.90;;;;;;5024602;28;20389;-56
2022/03/23 04:36:11;;;;;;;21.88;14.65;;;-2.00;99.90;;;;;;5023215;28;20487;-57
2022/03/23 04:38:36;;;;;;;24.80;14.45;;;-2.10;99.90;;;;;;5016607;28;20584;-57
2022/03/23 04:41:04;;;;;;;22.05;14.48;;;-2.10;99.90;;;;;;5020197;28;20128;-57
2022/03/23 04:43:30;;;;;;;21.05;13.43;;;-2.10;99.90;;;;;;5021624;28;20034;-57
2022/03/23 04:45:56;;;;;;;21.80;14.55;;;-2.10;99.90;;;;;;5017394;28;20470;-57
2022/03/23 04:48:21;;;;;;;18.23;13.85;;;-2.10;99.90;;;;;;5019876;28;20097;-55
2022/03/23 04:50:48;;;;;;;24.95;14.95;;;-2.10;99.90;;;;;;5020065;28;20009;-56
2022/03/23 04:53:15;;;;;;;24.58;14.57;;;-2.10;99.90;;;;;;5021320;28;20045;-58
2022/03/23 04:55:40;;;;;;;18.83;14.10;;;-2.10;99.90;;;;;;5018313;28;20454;-56
2022/03/23 04:58:06;;;;;;;18.75;13.27;;;-2.10;99.90;;;;;;5021201;28;20059;-58
2022/03/23 05:00:33;;;;;;;24.17;13.05;;;-2.20;99.90;;;;;;5022118;28;20033;-56
2022/03/23 05:02:58;;;;;;;14.90;12.90;;;-2.20;99.90;;;;;;5020873;28;20499;-57
2022/03/23 05:05:24;;;;;;;18.70;13.13;;;-2.20;99.90;;;;;;5019597;28;20037;-58
2022/03/23 05:07:50;;;;;;;21.23;14.38;;;-2.30;99.90;;;;;;5018003;28;20034;-56
2022/03/23 05:10:15;;;;;;;21.20;13.32;;;-2.30;99.90;;;;;;5018141;28;20435;-56
2022/03/23 05:12:43;;;;;;;21.52;13.60;;;-2.30;99.90;;;;;;5019122;28;20033;-55
2022/03/23 05:15:09;;;;;;;22.35;14.25;;;-2.30;99.90;;;;;;5022178;28;20022;-57
2022/03/23 05:17:36;;;;;;;19.40;13.43;;;-2.30;99.90;;;;;;5019476;28;20121;-56
2022/03/23 05:20:02;;;;;;;19.55;13.50;;;-2.30;99.90;;;;;;5018425;28;20034;-56
2022/03/23 05:22:28;;;;;;;22.02;13.27;;;-2.30;99.90;;;;;;5020536;28;20026;-54
2022/03/23 05:24:54;;;;;;;19.85;13.68;;;-2.30;99.90;;;;;;5015366;28;20049;-55
2022/03/23 05:27:20;;;;;;;20.35;14.25;;;-2.30;99.90;;;;;;5021969;28;20025;-56
2022/03/23 05:29:46;;;;;;;19.77;13.82;;;-2.30;99.90;;;;;;5017927;28;20028;-55
2022/03/23 05:32:16;;;;;;;19.17;13.82;;;-2.30;99.90;;;;;;5018361;28;20038;-54
2022/03/23 05:34:45;;;;;;;27.67;14.80;;;-2.30;99.90;;;;;;5020122;28;20026;-57
2022/03/23 05:37:11;;;;;;;21.58;14.98;;;-2.20;99.90;;;;;;5018678;28;20044;-57
2022/03/23 05:39:40;;;;;;;25.05;15.88;;;-2.20;99.90;;;;;;5021698;28;20548;-57
2022/03/23 05:42:07;;;;;;;18.05;14.00;;;-2.20;99.90;;;;;;5017262;28;20097;-55
2022/03/23 05:44:33;;;;;;;21.38;14.10;;;-2.20;99.90;;;;;;5019152;28;20030;-57
2022/03/23 05:46:59;;;;;;;25.50;14.45;;;-2.10;99.90;;;;;;5018404;28;20036;-56
2022/03/23 05:49:25;;;;;;;20.50;13.43;;;-2.10;99.90;;;;;;5016953;28;20029;-56
2022/03/23 05:51:52;;;;;;;19.23;14.43;;;-2.10;99.90;;;;;;5018367;28;20500;-56
2022/03/23 05:54:18;;;;;;;21.60;14.20;;;-2.10;99.90;;;;;;5021104;28;20112;-58
2022/03/23 05:56:44;;;;;;;20.98;14.65;;;-2.00;99.90;;;;;;5017434;28;20044;-56
2022/03/23 05:59:10;;;;;;;26.73;14.82;;;-2.00;99.90;;;;;;5019553;28;20517;-58
2022/03/23 06:01:36;;;;;;;25.02;14.02;;;-1.90;99.90;;;;;;5014233;28;20076;-55
2022/03/23 06:04:02;;;;;;;25.13;14.93;;;-1.80;99.90;;;;;;5018489;28;20112;-57
2022/03/23 06:06:28;;;;;;;25.73;14.75;;;-1.70;99.90;;;;;;5020228;28;20020;-57
2022/03/23 06:08:53;;;;;;;25.40;16.23;;;-1.60;99.90;;;;;;5017541;28;20026;-56
2022/03/23 06:11:19;;;;;;;27.02;14.07;;;-1.30;99.90;;;;;;5020577;28;20137;-57
2022/03/23 06:13:45;;;;;;;23.60;13.82;;;-0.20;99.90;;;;;;5017996;28;20030;-58
2022/03/23 06:16:11;;;;;;;14.15;11.93;;;1.20;99.90;;;;;;5016461;28;20088;-60
2022/03/23 06:18:40;;;;;;;14.25;11.88;;;2.80;99.90;;;;;;5021246;28;20061;-58
2022/03/23 06:21:06;;;;;;;13.60;12.20;;;4.30;99.70;;;;;;5015877;28;20060;-57
2022/03/23 06:23:31;;;;;;;13.10;10.98;;;5.40;92.80;;;;;;5036366;28;20492;-56
2022/03/23 06:25:57;;;;;;;14.85;12.18;;;6.40;91.00;;;;;;5033105;28;20036;-57
2022/03/23 06:28:23;;;;;;;12.30;11.10;;;7.50;87.70;;;;;;5020216;28;20041;-58
2022/03/23 06:30:50;;;;;;;14.77;11.65;;;8.20;79.50;;;;;;5019073;28;20204;-57
2022/03/23 06:33:17;;;;;;;13.70;11.88;;;8.80;74.60;;;;;;5018992;28;20030;-58
2022/03/23 06:35:43;;;;;;;11.95;10.80;;;9.50;70.60;;;;;;5021287;28;20129;-58
2022/03/23 06:38:08;;;;;;;13.13;10.43;;;9.70;71.30;;;;;;5020355;28;20108;-56
2022/03/23 06:40:34;;;;;;;12.90;10.95;;;10.50;68.30;;;;;;5015877;28;20080;-57
2022/03/23 06:43:00;;;;;;;13.50;12.10;;;11.40;64.20;;;;;;5020072;28;20030;-58
2022/03/23 06:45:26;;;;;;;13.32;12.05;;;11.20;61.50;;;;;;5017001;28;20034;-59
2022/03/23 06:47:51;;;;;;;15.07;11.60;;;11.50;62.30;;;;;;5014714;28;20030;-59
2022/03/23 06:50:17;;;;;;;12.60;11.32;;;12.10;60.50;;;;;;5017881;28;20044;-57
2022/03/23 06:52:42;;;;;;;12.88;11.70;;;12.20;61.10;;;;;;5015580;28;20033;-59
2022/03/23 06:55:09;;;;;;;12.93;11.63;;;13.30;59.90;;;;;;5017606;28;20045;-59
2022/03/23 06:57:35;;;;;;;15.50;12.25;;;14.30;57.30;;;;;;5016177;28;20112;-57
2022/03/23 07:00:01;;;;;;;13.40;12.20;;;14.80;54.90;;;;;;5017899;28;20034;-59
2022/03/23 07:02:26;;;;;;;12.93;11.70;;;15.70;53.10;;;;;;5016463;28;20135;-58
2022/03/23 07:04:52;;;;;;;14.25;12.80;;;16.30;49.80;;;;;;5018580;28;20408;-59
2022/03/23 07:07:20;;;;;;;13.18;11.93;;;15.90;49.50;;;;;;5015421;28;20455;-59
2022/03/23 07:09:46;;;;;;;14.50;13.10;;;16.40;49.50;;;;;;5017422;28;20053;-58
2022/03/23 07:12:12;;;;;;;15.63;13.13;;;16.90;48.40;;;;;;5017447;28;20017;-58
2022/03/23 07:14:40;;;;;;;15.68;13.07;;;17.50;46.90;;;;;;5022733;28;20030;-58
2022/03/23 07:17:06;;;;;;;14.63;12.85;;;18.00;46.80;;;;;;5016386;28;20130;-59
2022/03/23 07:19:33;;;;;;;13.80;12.68;;;17.60;46.10;;;;;;5015944;28;20029;-59
2022/03/23 07:21:58;;;;;;;16.80;12.50;;;17.80;46.40;;;;;;5013071;28;20032;-58
2022/03/23 07:24:25;;;;;;;14.15;12.93;;;18.30;46.20;;;;;;5018129;28;20022;-59
2022/03/23 07:26:50;;;;;;;15.75;13.85;;;18.70;44.60;;;;;;5015189;28;20030;-59
2022/03/23 07:29:16;;;;;;;13.10;11.98;;;18.70;44.80;;;;;;5018388;28;20026;-58
2022/03/23 07:31:46;;;;;;;14.07;12.82;;;19.00;43.60;;;;;;5018515;28;20113;-58
2022/03/23 07:34:18;;;;;;;13.57;12.43;;;19.60;42.50;;;;;;5014695;28;20489;-58
2022/03/23 07:36:46;;;;;;;14.10;12.90;;;19.70;41.40;;;;;;5022231;28;20038;-55
2022/03/23 07:39:16;;;;;;;13.02;12.00;;;20.40;40.50;;;;;;5015215;28;20076;-57
2022/03/23 07:41:42;;;;;;;14.60;13.30;;;20.90;39.80;;;;;;5017592;28;20044;-56
2022/03/23 07:44:08;;;;;;;12.88;11.82;;;20.90;38.80;;;;;;5016132;28;20453;-56
2022/03/23 07:46:35;;;;;;;14.32;13.13;;;21.60;39.50;;;;;;5018253;28;20030;-57
2022/03/23 07:49:01;;;;;;;12.63;11.68;;;21.80;36.60;;;;;;5018935;28;20393;-60
2022/03/23 07:51:26;;;;;;;13.38;12.00;;;22.00;37.40;;;;;;5017107;28;20021;-56
2022/03/23 07:53:52;;;;;;;14.40;13.02;;;22.00;36.70;;;;;;5015953;28;20033;-57
2022/03/23 07:56:17;;;;;;;13.77;12.57;;;22.10;37.50;;;;;;5020642;28;20396;-57
2022/03/23 07:58:43;;;;;;;13.00;12.00;;;22.50;37.40;;;;;;5020262;28;20025;-58
2022/03/23 08:01:09;;;;;;;13.48;12.38;;;22.20;37.10;;;;;;5003409;28;20025;-56
2022/03/23 08:03:34;;;;;;;12.73;11.70;;;21.50;37.60;;;;;;5021860;28;20060;-57
2022/03/23 08:06:00;;;;;;;14.23;12.73;;;21.70;38.50;;;;;;5018563;28;20041;-58
2022/03/23 08:08:25;;;;;;;13.10;11.80;;;21.80;37.70;;;;;;5019273;28;20033;-59
2022/03/23 08:10:51;;;;;;;14.77;13.32;;;22.00;39.20;;;;;;5017414;28;20441;-58
2022/03/23 08:13:17;;;;;;;13.52;12.32;;;22.30;37.80;;;;;;5018839;28;20038;-57
2022/03/23 08:15:43;;;;;;;14.77;13.50;;;22.50;35.30;;;;;;5024932;28;20036;-56
2022/03/23 08:18:09;;;;;;;15.27;13.80;;;23.50;36.50;;;;;;5023684;28;20029;-56
2022/03/23 08:20:35;;;;;;;15.55;13.95;;;23.90;35.30;;;;;;5019733;28;20037;-56
2022/03/23 08:23:08;;;;;;;15.45;13.98;;;24.20;34.50;;;;;;5018408;28;20017;-56
2022/03/23 08:25:38;;;;;;;13.98;12.95;;;24.70;33.90;;;;;;5021999;28;20029;-59
2022/03/23 08:28:08;;;;;;;14.68;13.45;;;25.10;32.50;;;;;;5019442;28;20383;-58
2022/03/23 08:30:34;;;;;;;14.98;13.45;;;25.40;32.70;;;;;;5018414;28;20026;-56
2022/03/23 08:33:01;;;;;;;14.88;13.70;;;25.70;32.20;;;;;;5017759;28;20052;-57
2022/03/23 08:35:26;;;;;;;14.95;13.40;;;25.60;32.40;;;;;;5015775;28;20603;-59
2022/03/23 08:37:52;;;;;;;14.35;13.07;;;25.80;32.10;;;;;;5024784;28;20018;-57
2022/03/23 08:40:18;;;;;;;13.95;12.88;;;25.90;32.60;;;;;;5013550;28;20034;-56
2022/03/23 08:42:44;;;;;;;12.98;12.02;;;26.00;33.30;;;;;;5017121;28;20030;-57
2022/03/23 08:45:11;;;;;;;13.63;12.38;;;26.10;32.50;;;;;;5020633;28;20032;-57
2022/03/23 08:47:38;;;;;;;13.80;12.63;;;26.50;31.10;;;;;;5019919;28;20036;-57
2022/03/23 08:50:07;;;;;;;13.93;12.75;;;26.60;31.20;;;;;;5019641;28;20026;-57
2022/03/23 08:52:33;;;;;;;12.48;11.48;;;27.10;30.40;;;;;;5016957;28;20487;-60
2022/03/23 08:54:58;;;;;;;12.82;11.68;;;26.90;30.00;;;;;;5020395;28;20117;-57
2022/03/23 08:57:24;;;;;;;13.18;11.88;;;27.40;29.80;;;;;;5020348;28;20477;-57
2022/03/23 08:59:49;;;;;;;12.70;11.65;;;27.50;29.90;;;;;;5015795;28;20065;-57
2022/03/23 09:02:15;;;;;;;12.63;11.57;;;27.40;29.10;;;;;;5029919;28;20116;-58
2022/03/23 09:04:41;;;;;;;12.25;11.18;;;27.90;28.80;;;;;;5018811;28;20054;-57
2022/03/23 09:07:07;;;;;;;12.20;11.23;;;28.30;28.70;;;;;;5018660;28;20038;-58
2022/03/23 09:09:32;;;;;;;18.02;12.50;;;28.50;29.30;;;;;;5017805;28;20038;-56
2022/03/23 09:11:58;;;;;;;13.48;12.15;;;28.10;28.90;;;;;;5021217;28;20484;-56
2022/03/23 09:14:24;;;;;;;12.13;10.90;;;27.90;30.00;;;;;;5018015;28;20058;-60
2022/03/23 09:16:49;;;;;;;11.90;10.85;;;27.70;28.50;;;;;;5016310;28;20034;-59
2022/03/23 09:19:19;;;;;;;13.38;11.93;;;27.50;27.70;;;;;;5019680;28;20099;-58
2022/03/23 09:21:47;;;;;;;11.77;10.88;;;27.80;28.00;;;;;;5017244;28;20052;-58
2022/03/23 09:24:13;;;;;;;12.35;10.85;;;28.30;28.10;;;;;;5019157;28;20036;-57
2022/03/23 09:26:39;;;;;;;11.45;10.45;;;28.90;27.90;;;;;;5017661;28;20038;-58
2022/03/23 09:29:06;;;;;;;12.20;11.10;;;29.20;28.20;;;;;;5017066;28;20045;-57
2022/03/23 09:31:32;;;;;;;10.77;9.82;;;29.50;27.90;;;;;;5018979;28;20050;-57
2022/03/23 09:33:57;;;;;;;13.93;11.30;;;29.70;28.40;;;;;;5014415;28;20079;-58
2022/03/23 09:39:08;;;;;;;11.43;10.48;;;30.00;27.60;;;;;;5015505;28;20115;-57
2022/03/23 09:41:34;;;;;;;11.10;10.20;;;30.00;27.50;;;;;;5017416;28;20026;-57
2022/03/23 09:44:01;;;;;;;11.07;10.18;;;29.40;27.10;;;;;;5016152;28;20070;-59
2022/03/23 09:46:27;;;;;;;10.38;9.20;;;29.00;27.80;;;;;;5014533;28;20029;-59
2022/03/23 09:48:53;;;;;;;10.70;9.80;;;29.10;27.10;;;;;;5020511;28;20083;-58
2022/03/23 09:51:20;;;;;;;9.88;9.07;;;28.40;28.00;;;;;;5020002;28;20057;-59
2022/03/23 09:53:46;;;;;;;10.57;9.77;;;28.70;29.20;;;;;;5019918;28;20385;-56
2022/03/23 09:56:12;;;;;;;9.07;8.38;;;28.00;28.40;;;;;;5018637;28;20029;-56
2022/03/23 09:58:40;;;;;;;9.63;8.90;;;28.20;26.80;;;;;;5017494;28;20732;-56
2022/03/23 10:01:26;;;;;;;9.95;9.15;;;28.50;27.60;;;;;;5018022;28;20026;-60
2022/03/23 10:04:06;;;;;;;10.80;9.50;;;28.70;27.40;;;;;;5015880;28;20022;-56
2022/03/23 10:07:06;;;;;;;10.88;10.00;;;29.00;28.20;;;;;;5016135;28;20029;-58
2022/03/23 10:10:10;;;;;;;10.70;9.70;;;28.70;27.30;;;;;;5014975;28;20022;-58
2022/03/23 10:13:13;;;;;;;10.60;9.70;;;28.30;28.00;;;;;;5011012;28;20034;-56
2022/03/23 10:16:24;;;;;;;14.40;10.15;;;28.20;28.80;;;;;;5018727;28;20034;-59
2022/03/23 10:18:52;;;;;;;10.37;9.43;;;28.50;28.30;;;;;;5012991;28;20029;-56
2022/03/23 10:21:20;;;;;;;16.15;9.90;;;28.10;29.10;;;;;;5016331;28;20117;-58
2022/03/23 10:24:00;;;;;;;10.23;9.20;;;28.60;28.90;;;;;;5017902;28;20045;-58
2022/03/23 10:26:31;;;;;;;10.55;9.75;;;28.50;28.00;;;;;;5016583;28;20030;-57
2022/03/23 10:28:58;;;;;;;10.40;9.60;;;28.30;28.40;;;;;;5019075;28;20541;-57
2022/03/23 10:31:27;;;;;;;10.23;9.50;;;28.10;28.40;;;;;;5017449;28;20399;-58
2022/03/23 10:34:07;;;;;;;10.13;9.13;;;28.30;29.20;;;;;;5016310;28;20437;-57
2022/03/23 10:36:34;;;;;;;15.00;9.33;;;28.10;28.70;;;;;;5015160;28;20041;-56
2022/03/23 10:39:03;;;;;;;9.15;8.35;;;28.00;28.60;;;;;;5014157;28;20079;-57
2022/03/23 10:41:30;;;;;;;7.35;6.65;;;28.00;28.20;;;;;;5013744;28;20030;-56
2022/03/23 10:43:57;;;;;;;11.77;7.03;;;28.60;26.90;;;;;;5017374;28;20034;-59
2022/03/23 10:46:23;;;;;;;8.93;5.68;;;28.40;26.00;;;;;;5017117;28;20041;-57
2022/03/23 10:49:01;;;;;;;6.45;5.85;;;28.10;25.40;;;;;;5017572;28;20045;-57
2022/03/23 10:51:28;;;;;;;6.63;5.97;;;27.90;25.80;;;;;;5016161;28;20155;-58
2022/03/23 10:53:55;;;;;;;7.18;6.35;;;28.10;26.40;;;;;;5018154;28;20025;-56
2022/03/23 10:56:32;;;;;;;6.07;5.57;;;28.20;25.90;;;;;;5016756;28;20037;-56
2022/03/23 10:59:16;;;;;;;8.43;5.53;;;28.20;26.10;;;;;;5017864;28;20371;-56
2022/03/23 11:02:01;;;;;;;6.63;6.05;;;28.40;25.30;;;;;;5016418;28;20076;-59
2022/03/23 11:04:43;;;;;;;5.65;5.15;;;28.70;25.50;;;;;;5016551;28;20026;-58
2022/03/23 11:07:25;;;;;;;6.20;5.70;;;28.20;25.40;;;;;;5016280;28;20029;-56
2022/03/23 11:18:15;;;;;;;5.60;5.10;;;27.20;26.50;;;;;;5014992;28;20092;-58
2022/03/23 11:20:52;;;;;;;6.70;5.00;;;27.40;25.10;;;;;;5013912;28;20497;-59
2022/03/23 11:23:19;;;;;;;4.97;4.57;;;27.30;26.30;;;;;;5018849;28;20029;-59
2022/03/23 11:25:50;;;;;;;7.78;5.20;;;27.10;26.50;;;;;;5017220;28;20443;-59
2022/03/23 11:28:17;;;;;;;6.00;5.47;;;26.90;26.60;;;;;;5017229;28;20036;-56
2022/03/23 11:30:44;;;;;;;5.90;5.40;;;26.80;26.20;;;;;;5012978;28;20081;-56
2022/03/23 11:33:11;;;;;;;6.10;5.60;;;26.60;27.80;;;;;;5015476;28;20421;-56
2022/03/23 11:35:48;;;;;;;5.90;5.40;;;26.30;26.20;;;;;;5018515;28;20030;-58
2022/03/23 11:38:21;;;;;;;5.90;5.25;;;26.10;27.50;;;;;;5013511;28;20490;-59
2022/03/23 11:40:48;;;;;;;7.55;5.53;;;26.00;27.80;;;;;;5018811;28;20026;-56
2022/03/23 11:43:16;;;;;;;6.85;6.25;;;26.00;28.20;;;;;;5015191;28;20057;-58
2022/03/23 11:45:45;;;;;;;10.20;6.25;;;26.20;27.80;;;;;;5018356;28;20095;-59
2022/03/23 11:48:22;;;;;;;6.43;5.93;;;26.60;27.70;;;;;;5017198;28;20040;-57
2022/03/23 11:51:01;;;;;;;5.57;5.07;;;27.10;27.60;;;;;;5019114;28;20585;-56
2022/03/23 11:53:47;;;;;;;6.95;6.35;;;27.40;27.30;;;;;;5017172;28;20034;-57
2022/03/23 11:56:22;;;;;;;6.38;5.78;;;27.70;26.50;;;;;;5018463;28;20033;-56
2022/03/23 11:58:48;;;;;;;7.70;6.10;;;27.60;26.90;;;;;;5019039;28;20022;-59
2022/03/23 12:01:15;;;;;;;8.43;5.82;;;27.40;28.00;;;;;;5018284;28;20029;-56
2022/03/23 12:03:40;;;;;;;7.65;6.85;;;27.20;27.20;;;;;;5016237;28;20022;-57
2022/03/23 12:06:11;;;;;;;7.57;6.88;;;27.20;26.80;;;;;;5017985;28;20041;-56
2022/03/23 12:09:02;;;;;;;8.77;6.93;;;26.90;26.90;;;;;;5018335;28;20113;-58
2022/03/23 12:11:44;;;;;;;8.00;7.20;;;26.90;27.80;;;;;;5012767;28;20026;-56
2022/03/23 12:14:27;;;;;;;8.38;7.28;;;27.20;27.80;;;;;;5014541;28;20113;-56
2022/03/23 12:16:52;;;;;;;12.05;8.93;;;27.40;27.40;;;;;;5014363;28;20041;-59
2022/03/23 12:19:18;;;;;;;8.48;7.78;;;27.00;26.40;;;;;;5017308;28;20034;-56
2022/03/23 12:21:55;;;;;;;9.82;7.35;;;26.50;27.00;;;;;;5014260;28;20129;-58
2022/03/23 12:24:52;;;;;;;8.52;7.82;;;26.00;28.80;;;;;;5015281;28;20033;-57
2022/03/23 12:27:41;;;;;;;7.82;6.93;;;25.80;28.60;;;;;;5015397;28;20021;-54
2022/03/23 12:30:31;;;;;;;9.07;8.30;;;25.80;27.60;;;;;;4982767;28;20033;-57
2022/03/23 12:33:08;;;;;;;9.57;7.93;;;25.90;28.10;;;;;;5015082;28;20076;-54
2022/03/23 12:35:35;;;;;;;8.77;8.07;;;25.80;27.20;;;;;;5018754;28;20409;-54
2022/03/23 12:38:02;;;;;;;8.27;7.57;;;25.40;27.50;;;;;;5013631;28;20073;-56
2022/03/23 12:40:39;;;;;;;8.48;7.68;;;25.10;30.10;;;;;;5018759;28;20485;-55
2022/03/23 12:43:04;;;;;;;8.68;7.78;;;24.90;30.00;;;;;;5015565;28;20040;-56
2022/03/23 12:45:37;;;;;;;8.27;7.22;;;25.00;29.60;;;;;;5018705;28;20022;-54
2022/03/23 12:57:49;;;;;;;9.52;8.57;;;25.10;30.10;;;;;;5021173;28;20018;-55
2022/03/23 12:59:21;;;;;;;8.95;8.25;;;25.40;30.30;;;;;;5021242;28;20381;-57
2022/03/23 13:01:54;;;;;;;7.90;7.20;;;25.70;29.70;;;;;;5018187;28;20049;-56
2022/03/23 13:04:40;;;;;;;8.20;7.50;;;25.60;29.80;;;;;;5019339;28;20033;-55
2022/03/23 13:07:27;;;;;;;8.10;7.38;;;25.80;28.80;;;;;;5022386;28;20139;-55
2022/03/23 13:10:06;;;;;;;8.45;7.47;;;26.10;29.40;;;;;;5017491;28;20037;-57